Time;durP1;ratioP1;P1;durP2;ratioP2;P2;SDS_P1;SDS_P2;PMS_P1;PMS_P2;Temp;Humidity;BMP_temperature;BMP_pressure;BME280_temperature;BME280_humidity;BME280_pressure;Samples;Min_cycle;Max_cycle;Signal;HPM_P1;HPM_P2
2022/08/17 00:00:16;;;;;;;;;;;29.10;44.20;;;;;;861214;23;960;-83
2022/08/17 00:00:38;;;;;;;;;;;29.10;45.10;;;;;;860676;23;919;-82
2022/08/17 00:00:59;;;;;;;;;;;29.10;45.30;;;;;;861104;23;894;-84
2022/08/17 00:01:22;;;;;;;;;;;29.10;45.50;;;;;;861249;23;822;-83
2022/08/17 00:01:42;;;;;;;;;;;29.00;44.20;;;;;;861235;23;840;-82
2022/08/17 00:02:03;;;;;;;;;;;29.00;44.20;;;;;;861148;23;896;-84
2022/08/17 00:02:24;;;;;;;;;;;29.00;44.40;;;;;;861185;23;778;-84
2022/08/17 00:03:00;;;;;;;;;;;29.00;44.20;;;;;;861327;23;920;-83
2022/08/17 00:03:24;;;;;;;;;;;29.00;45.20;;;;;;861085;23;838;-82
2022/08/17 00:03:46;;;;;;;;;;;29.10;45.20;;;;;;861170;23;856;-83
2022/08/17 00:04:07;;;;;;;;;;;29.10;45.30;;;;;;861210;23;842;-83
2022/08/17 00:04:28;;;;;;;;;;;29.10;45.40;;;;;;861243;23;856;-84
2022/08/17 00:04:48;;;;;;;;;;;29.00;45.30;;;;;;861270;23;762;-84
2022/08/17 00:05:09;;;;;;;;;;;27.30;44.20;;;;;;861204;23;925;-82
2022/08/17 00:05:33;;;;;;;;;;;29.00;44.30;;;;;;861193;23;853;-83
2022/08/17 00:05:54;;;;;;;;;;;29.00;45.30;;;;;;861333;23;817;-84
2022/08/17 00:06:17;;;;;;;;;;;29.10;45.40;;;;;;861184;23;853;-84
2022/08/17 00:06:37;;;;;;;;;;;29.00;45.30;;;;;;861238;23;868;-81
2022/08/17 00:06:58;;;;;;;;;;;29.00;44.40;;;;;;861223;23;782;-84
2022/08/17 00:07:18;;;;;;;;;;;29.10;44.50;;;;;;861137;23;869;-84
2022/08/17 00:07:39;;;;;;;;;;;29.00;44.40;;;;;;861220;23;912;-82
2022/08/17 00:08:00;;;;;;;;;;;29.00;44.30;;;;;;861202;23;935;-82
2022/08/17 00:08:24;;;;;;;;;;;29.00;45.20;;;;;;861071;23;924;-83
2022/08/17 00:08:46;;;;;;;;;;;29.00;44.30;;;;;;861197;23;816;-84
2022/08/17 00:09:06;;;;;;;;;;;29.00;45.30;;;;;;861248;23;801;-84
2022/08/17 00:09:27;;;;;;;;;;;29.00;45.30;;;;;;861193;23;936;-83
2022/08/17 00:09:48;;;;;;;;;;;29.00;45.30;;;;;;861171;23;903;-84
2022/08/17 00:10:08;;;;;;;;;;;29.00;44.40;;;;;;861215;23;805;-83
2022/08/17 00:10:29;;;;;;;;;;;29.00;44.40;;;;;;861197;23;905;-82
2022/08/17 00:10:50;;;;;;;;;;;29.00;44.30;;;;;;861264;23;893;-84
2022/08/17 00:11:13;;;;;;;;;;;29.00;44.30;;;;;;861197;23;837;-84
2022/08/17 00:11:39;;;;;;;;;;;29.00;44.40;;;;;;861246;23;731;-84
2022/08/17 00:12:01;;;;;;;;;;;29.10;45.40;;;;;;861275;23;908;-82
2022/08/17 00:12:21;;;;;;;;;;;29.00;45.30;;;;;;861087;23;906;-84
2022/08/17 00:12:43;;;;;;;;;;;29.00;45.40;;;;;;861140;23;841;-82
2022/08/17 00:13:04;;;;;;;;;;;29.00;45.40;;;;;;861242;23;829;-83
2022/08/17 00:13:27;;;;;;;;;;;29.00;45.50;;;;;;861355;23;854;-85
2022/08/17 00:13:49;;;;;;;;;;;29.00;45.40;;;;;;861420;23;833;-84
2022/08/17 00:14:14;;;;;;;;;;;29.00;44.50;;;;;;861450;23;774;-82
2022/08/17 00:14:34;;;;;;;;;;;29.00;45.40;;;;;;861421;23;1900;-85
2022/08/17 00:14:55;;;;;;;;;;;29.00;44.40;;;;;;861530;23;822;-84
2022/08/17 00:15:16;;;;;;;;;;;29.00;44.40;;;;;;861433;23;990;-84
2022/08/17 00:15:37;;;;;;;;;;;29.00;45.40;;;;;;861452;23;877;-85
2022/08/17 00:15:59;;;;;;;;;;;29.00;45.40;;;;;;861588;23;769;-84
2022/08/17 00:16:24;;;;;;;;;;;29.00;44.40;;;;;;861293;23;878;-83
2022/08/17 00:16:49;;;;;;;;;;;29.00;45.30;;;;;;861530;23;797;-84
2022/08/17 00:17:09;;;;;;;;;;;29.00;45.30;;;;;;857000;23;1852;-84
2022/08/17 00:17:30;;;;;;;;;;;29.00;44.30;;;;;;856920;23;881;-84
2022/08/17 00:17:51;;;;;;;;;;;29.00;44.20;;;;;;857028;23;918;-84
2022/08/17 00:18:17;;;;;;;;;;;29.00;45.30;;;;;;857164;23;837;-83
2022/08/17 00:18:38;;;;;;;;;;;29.00;45.30;;;;;;857238;23;1073;-83
2022/08/17 00:18:59;;;;;;;;;;;29.10;45.20;;;;;;859239;23;801;-82
2022/08/17 00:19:21;;;;;;;;;;;29.10;45.40;;;;;;861744;23;817;-83
2022/08/17 00:19:42;;;;;;;;;;;29.00;45.10;;;;;;861646;23;793;-82
2022/08/17 00:20:03;;;;;;;;;;;29.10;45.30;;;;;;857039;23;1364;-83
2022/08/17 00:20:23;;;;;;;;;;;29.10;45.30;;;;;;857337;23;834;-84
2022/08/17 00:20:44;;;;;;;;;;;29.00;44.20;;;;;;857361;23;896;-83
2022/08/17 00:21:05;;;;;;;;;;;29.10;45.20;;;;;;857111;23;826;-82
2022/08/17 00:21:27;;;;;;;;;;;29.10;45.10;;;;;;855375;23;936;-84
2022/08/17 00:21:49;;;;;;;;;;;29.10;45.10;;;;;;858096;23;840;-82
2022/08/17 00:22:09;;;;;;;;;;;29.00;44.10;;;;;;861451;23;770;-83
2022/08/17 00:22:30;;;;;;;;;;;29.00;45.10;;;;;;861732;23;778;-82
2022/08/17 00:23:00;;;;;;;;;;;29.00;44.10;;;;;;861549;23;908;-82
2022/08/17 00:23:21;;;;;;;;;;;29.00;44.00;;;;;;861442;23;917;-82
2022/08/17 00:23:42;;;;;;;;;;;29.10;45.20;;;;;;861524;23;790;-84
2022/08/17 00:24:02;;;;;;;;;;;29.10;45.10;;;;;;861568;23;778;-84
2022/08/17 00:24:23;;;;;;;;;;;29.10;45.10;;;;;;861603;23;802;-83
2022/08/17 00:24:43;;;;;;;;;;;29.10;44.10;;;;;;861438;23;914;-84
2022/08/17 00:25:06;;;;;;;;;;;29.10;45.10;;;;;;861433;23;848;-83
2022/08/17 00:25:26;;;;;;;;;;;29.10;45.00;;;;;;861704;23;845;-83
2022/08/17 00:25:47;;;;;;;;;;;29.00;44.00;;;;;;861717;23;794;-83
2022/08/17 00:26:08;;;;;;;;;;;29.10;44.10;;;;;;861579;23;757;-83
2022/08/17 00:26:28;;;;;;;;;;;29.10;44.10;;;;;;861757;23;893;-84
2022/08/17 00:26:49;;;;;;;;;;;29.10;44.00;;;;;;861853;23;773;-81
2022/08/17 00:27:10;;;;;;;;;;;29.10;44.10;;;;;;861771;23;1324;-83
2022/08/17 00:27:30;;;;;;;;;;;29.10;46.20;;;;;;861681;23;813;-83
2022/08/17 00:27:51;;;;;;;;;;;29.10;44.10;;;;;;861640;23;901;-84
2022/08/17 00:28:13;;;;;;;;;;;29.10;44.90;;;;;;861778;23;944;-83
2022/08/17 00:28:34;;;;;;;;;;;29.10;44.00;;;;;;861739;23;821;-83
2022/08/17 00:28:55;;;;;;;;;;;29.10;45.00;;;;;;861927;23;793;-84
2022/08/17 00:29:16;;;;;;;;;;;29.10;44.90;;;;;;861717;23;901;-83
2022/08/17 00:29:36;;;;;;;;;;;29.10;45.00;;;;;;861614;23;832;-82
2022/08/17 00:29:57;;;;;;;;;;;29.10;44.90;;;;;;861543;23;813;-83
2022/08/17 00:30:17;;;;;;;;;;;29.10;44.00;;;;;;861659;23;892;-83
2022/08/17 00:30:38;;;;;;;;;;;29.10;45.00;;;;;;861808;23;844;-83
2022/08/17 00:30:58;;;;;;;;;;;29.10;44.00;;;;;;861478;23;1323;-83
2022/08/17 00:31:19;;;;;;;;;;;29.10;44.00;;;;;;861636;23;845;-80
2022/08/17 00:31:40;;;;;;;;;;;29.10;43.90;;;;;;861466;23;521;-83
2022/08/17 00:32:02;;;;;;;;;;;29.10;44.00;;;;;;861605;23;817;-84
2022/08/17 00:32:22;;;;;;;;;;;29.10;43.90;;;;;;861810;23;860;-82
2022/08/17 00:32:45;;;;;;;;;;;29.10;43.80;;;;;;861581;23;774;-83
2022/08/17 00:33:10;;;;;;;;;;;29.10;44.90;;;;;;861432;23;912;-84
2022/08/17 00:33:30;;;;;;;;;;;29.10;43.80;;;;;;861907;23;925;-82
2022/08/17 00:33:51;;;;;;;;;;;29.10;44.80;;;;;;861501;23;820;-83
2022/08/17 00:34:11;;;;;;;;;;;29.10;44.80;;;;;;861437;23;872;-82
2022/08/17 00:34:32;;;;;;;;;;;29.10;44.80;;;;;;861680;23;1904;-81
2022/08/17 00:34:53;;;;;;;;;;;29.10;45.90;;;;;;861520;23;920;-83
2022/08/17 00:35:14;;;;;;;;;;;29.10;44.80;;;;;;857024;23;837;-84
2022/08/17 00:35:35;;;;;;;;;;;29.10;43.80;;;;;;857084;23;786;-81
2022/08/17 00:35:56;;;;;;;;;;;29.10;43.80;;;;;;857124;23;904;-82
2022/08/17 00:36:17;;;;;;;;;;;29.10;44.80;;;;;;857081;23;850;-82
2022/08/17 00:36:38;;;;;;;;;;;29.10;43.80;;;;;;856967;23;1305;-83
2022/08/17 00:36:58;;;;;;;;;;;29.10;43.80;;;;;;857923;23;816;-82
2022/08/17 00:37:19;;;;;;;;;;;29.10;44.80;;;;;;861561;23;789;-83
2022/08/17 00:37:39;;;;;;;;;;;30.10;45.60;;;;;;861501;23;872;-82
2022/08/17 00:38:00;;;;;;;;;;;29.10;43.70;;;;;;861382;23;821;-80
2022/08/17 00:38:21;;;;;;;;;;;29.20;44.90;;;;;;861532;23;774;-83
2022/08/17 00:38:43;;;;;;;;;;;29.20;44.80;;;;;;861737;23;956;-82
2022/08/17 00:39:04;;;;;;;;;;;29.20;44.80;;;;;;861461;23;915;-84
2022/08/17 00:39:24;;;;;;;;;;;29.10;43.70;;;;;;861640;23;797;-83
2022/08/17 00:39:45;;;;;;;;;;;29.10;43.70;;;;;;861758;23;809;-83
2022/08/17 00:40:07;;;;;;;;;;;29.20;44.80;;;;;;861612;23;869;-83
2022/08/17 00:40:28;;;;;;;;;;;29.10;44.60;;;;;;861436;23;1020;-83
2022/08/17 00:40:51;;;;;;;;;;;29.10;44.70;;;;;;861560;23;837;-83
2022/08/17 00:41:14;;;;;;;;;;;29.20;44.90;;;;;;861663;23;829;-83
2022/08/17 00:41:34;;;;;;;;;;;29.20;44.70;;;;;;861705;23;778;-82
2022/08/17 00:41:56;;;;;;;;;;;29.10;43.80;;;;;;861387;23;475;-82
2022/08/17 00:42:17;;;;;;;;;;;29.10;43.70;;;;;;861990;23;873;-83
2022/08/17 00:42:38;;;;;;;;;;;29.10;43.70;;;;;;861588;23;785;-83
2022/08/17 00:43:08;;;;;;;;;;;29.10;44.80;;;;;;861505;23;785;-84
2022/08/17 00:43:39;;;;;;;;;;;29.10;43.60;;;;;;861753;23;955;-83
2022/08/17 00:44:01;;;;;;;;;;;29.20;44.70;;;;;;861519;23;1511;-83
2022/08/17 00:44:21;;;;;;;;;;;29.10;44.50;;;;;;861381;23;910;-83
2022/08/17 00:44:43;;;;;;;;;;;29.10;44.60;;;;;;861415;23;861;-83
2022/08/17 00:45:04;;;;;;;;;;;29.10;43.60;;;;;;861416;23;846;-83
2022/08/17 00:45:26;;;;;;;;;;;29.10;44.50;;;;;;860516;23;918;-83
2022/08/17 00:45:46;;;;;;;;;;;29.10;44.50;;;;;;861424;23;778;-81
2022/08/17 00:46:08;;;;;;;;;;;29.10;44.50;;;;;;861459;23;876;-84
2022/08/17 00:46:31;;;;;;;;;;;29.20;44.60;;;;;;860525;23;959;-82
2022/08/17 00:46:51;;;;;;;;;;;29.10;44.60;;;;;;861488;23;786;-81
2022/08/17 00:47:12;;;;;;;;;;;29.20;44.50;;;;;;861532;23;892;-83
2022/08/17 00:47:32;;;;;;;;;;;29.20;44.60;;;;;;861291;23;940;-83
2022/08/17 00:47:54;;;;;;;;;;;29.10;43.60;;;;;;861580;23;782;-82
2022/08/17 00:48:15;;;;;;;;;;;29.10;43.70;;;;;;861466;23;777;-83
2022/08/17 00:48:36;;;;;;;;;;;29.10;43.60;;;;;;861470;23;873;-82
2022/08/17 00:48:57;;;;;;;;;;;29.20;44.60;;;;;;861432;23;857;-84
2022/08/17 00:49:22;;;;;;;;;;;29.10;44.50;;;;;;861588;23;908;-83
2022/08/17 00:49:43;;;;;;;;;;;29.10;44.50;;;;;;861431;23;820;-81
2022/08/17 00:50:04;;;;;;;;;;;29.10;43.90;;;;;;861692;23;797;-84
2022/08/17 00:50:25;;;;;;;;;;;29.10;44.60;;;;;;861956;23;797;-84
2022/08/17 00:50:54;;;;;;;;;;;29.10;44.60;;;;;;861482;23;888;-84
2022/08/17 00:51:30;;;;;;;;;;;29.10;43.90;;;;;;861656;23;861;-83
2022/08/17 00:51:53;;;;;;;;;;;29.10;44.60;;;;;;861315;23;810;-83
2022/08/17 00:52:17;;;;;;;;;;;29.10;43.60;;;;;;861369;23;910;-83
2022/08/17 00:52:51;;;;;;;;;;;29.10;43.50;;;;;;861701;23;860;-84
2022/08/17 00:53:11;;;;;;;;;;;29.10;44.40;;;;;;861467;23;818;-82
2022/08/17 00:53:35;;;;;;;;;;;29.20;44.60;;;;;;861460;23;876;-84
2022/08/17 00:54:03;;;;;;;;;;;29.10;44.60;;;;;;861357;23;916;-84
2022/08/17 00:54:23;;;;;;;;;;;29.10;44.50;;;;;;861520;23;872;-84
2022/08/17 00:54:45;;;;;;;;;;;29.10;44.70;;;;;;856981;23;1936;-84
2022/08/17 00:55:06;;;;;;;;;;;29.10;44.50;;;;;;857114;23;812;-83
2022/08/17 00:55:27;;;;;;;;;;;29.10;44.50;;;;;;857139;23;830;-84
2022/08/17 00:55:47;;;;;;;;;;;29.10;44.70;;;;;;857170;23;861;-83
2022/08/17 00:56:13;;;;;;;;;;;29.20;44.90;;;;;;857163;23;1243;-83
2022/08/17 00:56:36;;;;;;;;;;;29.10;44.50;;;;;;859143;23;888;-83
2022/08/17 00:57:03;;;;;;;;;;;29.10;44.50;;;;;;856040;23;897;-83
2022/08/17 00:57:27;;;;;;;;;;;29.20;44.60;;;;;;857010;23;884;-84
2022/08/17 00:57:50;;;;;;;;;;;29.20;43.70;;;;;;857254;23;889;-84
2022/08/17 00:58:11;;;;;;;;;;;29.10;43.60;;;;;;856943;23;1339;-84
2022/08/17 00:58:31;;;;;;;;;;;29.10;44.60;;;;;;857151;23;860;-83
2022/08/17 00:58:53;;;;;;;;;;;29.10;43.60;;;;;;860277;23;781;-84
2022/08/17 00:59:16;;;;;;;;;;;29.10;44.50;;;;;;861463;23;865;-85
2022/08/17 00:59:40;;;;;;;;;;;29.20;44.60;;;;;;856982;23;1413;-84
2022/08/17 01:00:10;;;;;;;;;;;29.20;43.70;;;;;;857218;23;845;-84
2022/08/17 01:00:32;;;;;;;;;;;29.10;43.60;;;;;;857122;23;753;-83
2022/08/17 01:00:53;;;;;;;;;;;29.10;44.50;;;;;;857024;23;1834;-83
2022/08/17 01:01:14;;;;;;;;;;;29.10;43.60;;;;;;857095;23;912;-84
2022/08/17 01:01:35;;;;;;;;;;;29.10;44.50;;;;;;860811;23;939;-84
2022/08/17 01:01:56;;;;;;;;;;;29.10;44.50;;;;;;861372;23;901;-82
2022/08/17 01:02:18;;;;;;;;;;;29.10;44.50;;;;;;861480;23;785;-84
2022/08/17 01:02:41;;;;;;;;;;;29.10;43.50;;;;;;861547;23;933;-84
2022/08/17 01:03:05;;;;;;;;;;;29.10;44.70;;;;;;861525;23;825;-83
2022/08/17 01:03:26;;;;;;;;;;;29.10;43.50;;;;;;861351;23;921;-84
2022/08/17 01:03:47;;;;;;;;;;;29.10;44.50;;;;;;861393;23;769;-84
2022/08/17 01:04:09;;;;;;;;;;;29.10;43.60;;;;;;861378;23;892;-84
2022/08/17 01:04:31;;;;;;;;;;;29.20;44.70;;;;;;861434;23;821;-84
2022/08/17 01:04:52;;;;;;;;;;;29.10;43.60;;;;;;861403;23;762;-84
2022/08/17 01:05:16;;;;;;;;;;;29.10;43.60;;;;;;861429;23;841;-84
2022/08/17 01:05:38;;;;;;;;;;;29.10;44.60;;;;;;861491;23;782;-84
2022/08/17 01:05:59;;;;;;;;;;;29.20;44.60;;;;;;860310;23;924;-83
2022/08/17 01:06:21;;;;;;;;;;;29.10;45.50;;;;;;861413;23;916;-84
2022/08/17 01:06:45;;;;;;;;;;;29.10;44.50;;;;;;861535;23;754;-83
2022/08/17 01:07:06;;;;;;;;;;;29.20;44.50;;;;;;861267;23;824;-84
2022/08/17 01:07:28;;;;;;;;;;;29.10;44.40;;;;;;861476;23;781;-84
2022/08/17 01:07:51;;;;;;;;;;;29.10;44.60;;;;;;861408;23;865;-83
2022/08/17 01:08:14;;;;;;;;;;;29.20;44.50;;;;;;861441;23;840;-85
2022/08/17 01:08:35;;;;;;;;;;;29.20;44.50;;;;;;861404;23;850;-84
2022/08/17 01:08:56;;;;;;;;;;;29.10;44.40;;;;;;861466;23;869;-84
2022/08/17 01:09:17;;;;;;;;;;;29.10;43.50;;;;;;861450;23;860;-83
2022/08/17 01:09:38;;;;;;;;;;;29.20;44.60;;;;;;861408;23;860;-83
2022/08/17 01:10:02;;;;;;;;;;;29.20;44.60;;;;;;861412;23;785;-83
2022/08/17 01:10:26;;;;;;;;;;;29.10;43.60;;;;;;861537;23;833;-84
2022/08/17 01:10:48;;;;;;;;;;;29.10;43.60;;;;;;861555;23;888;-83
2022/08/17 01:11:09;;;;;;;;;;;29.10;44.60;;;;;;861348;23;935;-83
2022/08/17 01:11:30;;;;;;;;;;;29.20;44.80;;;;;;861580;23;757;-83
2022/08/17 01:11:51;;;;;;;;;;;29.10;44.60;;;;;;861505;23;908;-82
2022/08/17 01:12:12;;;;;;;;;;;29.10;43.60;;;;;;861277;23;916;-84
2022/08/17 01:12:33;;;;;;;;;;;29.10;43.60;;;;;;861570;23;821;-84
2022/08/17 01:12:55;;;;;;;;;;;29.10;43.50;;;;;;861495;23;876;-83
2022/08/17 01:13:16;;;;;;;;;;;29.10;43.50;;;;;;861451;23;953;-84
2022/08/17 01:13:39;;;;;;;;;;;29.10;43.50;;;;;;861437;23;746;-83
2022/08/17 01:14:00;;;;;;;;;;;29.10;43.40;;;;;;861511;23;766;-82
2022/08/17 01:14:21;;;;;;;;;;;29.10;43.50;;;;;;861331;23;861;-84
2022/08/17 01:14:42;;;;;;;;;;;29.10;43.40;;;;;;861396;23;1909;-84
2022/08/17 01:15:04;;;;;;;;;;;29.10;43.60;;;;;;861360;23;812;-84
2022/08/17 01:15:25;;;;;;;;;;;29.10;43.60;;;;;;861309;23;868;-84
2022/08/17 01:15:49;;;;;;;;;;;29.10;43.60;;;;;;856955;23;1183;-83
2022/08/17 01:16:14;;;;;;;;;;;29.10;43.60;;;;;;856028;23;956;-83
2022/08/17 01:16:36;;;;;;;;;;;29.10;44.50;;;;;;856907;23;909;-82
2022/08/17 01:16:56;;;;;;;;;;;29.10;44.50;;;;;;857051;23;777;-82
2022/08/17 01:17:17;;;;;;;;;;;29.10;43.60;;;;;;857053;23;761;-83
2022/08/17 01:17:38;;;;;;;;;;;29.10;43.70;;;;;;859386;23;952;-82
2022/08/17 01:17:59;;;;;;;;;;;29.10;43.50;;;;;;861582;23;769;-82
2022/08/17 01:18:20;;;;;;;;;;;29.10;43.50;;;;;;860704;23;1523;-82
2022/08/17 01:18:41;;;;;;;;;;;29.10;44.60;;;;;;861619;23;804;-82
2022/08/17 01:19:05;;;;;;;;;;;29.10;44.80;;;;;;861466;23;844;-81
2022/08/17 01:19:27;;;;;;;;;;;29.10;44.60;;;;;;860978;23;1098;-82
2022/08/17 01:19:48;;;;;;;;;;;29.10;43.80;;;;;;861347;23;920;-82
2022/08/17 01:20:08;;;;;;;;;;;29.10;44.70;;;;;;861620;23;931;-82
2022/08/17 01:20:29;;;;;;;;;;;29.10;43.70;;;;;;861361;23;766;-81
2022/08/17 01:20:52;;;;;;;;;;;29.10;43.50;;;;;;861600;23;789;-82
2022/08/17 01:21:18;;;;;;;;;;;29.10;43.60;;;;;;861484;23;822;-82
2022/08/17 01:21:42;;;;;;;;;;;29.10;43.80;;;;;;861285;23;955;-82
2022/08/17 01:22:21;;;;;;;;;;;29.10;43.50;;;;;;861386;23;828;-82
2022/08/17 01:22:42;;;;;;;;;;;29.10;44.60;;;;;;855607;23;1288;-83
2022/08/17 01:23:03;;;;;;;;;;;29.10;45.70;;;;;;857159;23;754;-82
2022/08/17 01:23:24;;;;;;;;;;;29.10;43.60;;;;;;857093;23;757;-82
2022/08/17 01:23:45;;;;;;;;;;;29.10;43.60;;;;;;856946;23;1296;-82
2022/08/17 01:24:05;;;;;;;;;;;29.00;43.50;;;;;;857123;23;888;-82
2022/08/17 01:24:26;;;;;;;;;;;29.10;44.50;;;;;;857732;23;1127;-82
2022/08/17 01:24:48;;;;;;;;;;;29.10;44.50;;;;;;861315;23;754;-84
2022/08/17 01:25:10;;;;;;;;;;;29.10;44.50;;;;;;861249;23;758;-82
2022/08/17 01:25:30;;;;;;;;;;;29.10;44.70;;;;;;861367;23;769;-81
2022/08/17 01:25:53;;;;;;;;;;;29.10;44.80;;;;;;861419;23;876;-82
2022/08/17 01:26:13;;;;;;;;;;;29.10;44.60;;;;;;861384;23;908;-83
2022/08/17 01:26:34;;;;;;;;;;;29.00;43.60;;;;;;861429;23;840;-80
2022/08/17 01:26:55;;;;;;;;;;;29.10;43.60;;;;;;861333;23;928;-83
2022/08/17 01:27:16;;;;;;;;;;;29.00;43.60;;;;;;861313;23;887;-82
2022/08/17 01:27:37;;;;;;;;;;;29.00;43.60;;;;;;861427;23;734;-82
2022/08/17 01:27:58;;;;;;;;;;;29.00;43.50;;;;;;861547;23;930;-83
2022/08/17 01:28:19;;;;;;;;;;;29.10;43.60;;;;;;861475;23;758;-83
2022/08/17 01:28:40;;;;;;;;;;;29.10;44.70;;;;;;861355;23;818;-82
2022/08/17 01:29:01;;;;;;;;;;;29.10;43.70;;;;;;861304;23;865;-83
2022/08/17 01:29:23;;;;;;;;;;;29.00;44.50;;;;;;861502;23;833;-82
2022/08/17 01:29:47;;;;;;;;;;;29.00;44.60;;;;;;861365;23;793;-82
2022/08/17 01:30:09;;;;;;;;;;;29.10;44.50;;;;;;861424;23;805;-83
2022/08/17 01:30:29;;;;;;;;;;;29.10;44.60;;;;;;861272;23;1725;-83
2022/08/17 01:30:52;;;;;;;;;;;29.00;44.80;;;;;;861359;23;868;-83
2022/08/17 01:31:12;;;;;;;;;;;29.10;43.80;;;;;;861478;23;813;-81
2022/08/17 01:31:44;;;;;;;;;;;29.00;43.60;;;;;;861373;23;797;-82
2022/08/17 01:32:06;;;;;;;;;;;29.00;44.60;;;;;;861380;23;902;-83
2022/08/17 01:32:29;;;;;;;;;;;29.10;44.70;;;;;;861378;23;821;-82
2022/08/17 01:32:50;;;;;;;;;;;29.00;44.60;;;;;;856932;23;1225;-82
2022/08/17 01:33:11;;;;;;;;;;;29.00;43.80;;;;;;857063;23;861;-82
2022/08/17 01:33:32;;;;;;;;;;;29.00;43.70;;;;;;857069;23;766;-83
2022/08/17 01:33:52;;;;;;;;;;;29.00;43.70;;;;;;856996;23;924;-83
2022/08/17 01:34:14;;;;;;;;;;;29.00;43.80;;;;;;856916;23;889;-85
2022/08/17 01:34:35;;;;;;;;;;;29.00;44.70;;;;;;858099;23;1897;-84
2022/08/17 01:34:55;;;;;;;;;;;29.00;43.70;;;;;;861481;23;864;-82
2022/08/17 01:35:16;;;;;;;;;;;29.00;43.70;;;;;;861288;23;897;-82
2022/08/17 01:35:37;;;;;;;;;;;29.00;43.90;;;;;;861326;23;846;-84
2022/08/17 01:35:59;;;;;;;;;;;29.00;43.70;;;;;;861336;23;928;-83
2022/08/17 01:36:20;;;;;;;;;;;29.00;43.90;;;;;;861377;23;837;-83
2022/08/17 01:36:43;;;;;;;;;;;29.00;43.70;;;;;;861446;23;805;-82
2022/08/17 01:37:04;;;;;;;;;;;29.00;44.70;;;;;;861342;23;875;-82
2022/08/17 01:37:35;;;;;;;;;;;29.00;43.70;;;;;;861500;23;798;-82
2022/08/17 01:37:56;;;;;;;;;;;29.00;44.70;;;;;;861355;23;798;-82
2022/08/17 01:38:17;;;;;;;;;;;29.00;43.80;;;;;;861309;23;1488;-84
2022/08/17 01:38:38;;;;;;;;;;;29.00;44.80;;;;;;861497;23;766;-83
2022/08/17 01:38:59;;;;;;;;;;;29.00;43.70;;;;;;861263;23;973;-83
2022/08/17 01:39:22;;;;;;;;;;;29.00;44.00;;;;;;861425;23;841;-82
2022/08/17 01:39:46;;;;;;;;;;;29.00;44.00;;;;;;861334;23;873;-83
2022/08/17 01:40:09;;;;;;;;;;;29.00;44.00;;;;;;861349;23;980;-82
2022/08/17 01:40:36;;;;;;;;;;;29.00;44.70;;;;;;861441;23;808;-82
2022/08/17 01:41:01;;;;;;;;;;;29.00;44.60;;;;;;856903;23;1273;-82
2022/08/17 01:41:22;;;;;;;;;;;29.00;44.80;;;;;;857090;23;873;-83
2022/08/17 01:41:44;;;;;;;;;;;29.00;44.80;;;;;;856964;23;1005;-83
2022/08/17 01:42:07;;;;;;;;;;;29.00;44.80;;;;;;856878;23;818;-83
2022/08/17 01:42:28;;;;;;;;;;;29.00;44.90;;;;;;856980;23;836;-82
2022/08/17 01:42:57;;;;;;;;;;;29.00;44.90;;;;;;859574;23;804;-82
2022/08/17 01:43:21;;;;;;;;;;;29.00;44.80;;;;;;861282;23;944;-83
2022/08/17 01:43:44;;;;;;;;;;;29.00;44.90;;;;;;861352;23;817;-84
2022/08/17 01:44:05;;;;;;;;;;;29.00;44.00;;;;;;861294;23;940;-83
2022/08/17 01:44:26;;;;;;;;;;;29.00;44.00;;;;;;856912;23;1179;-81
2022/08/17 01:44:47;;;;;;;;;;;28.90;43.90;;;;;;856943;23;933;-83
2022/08/17 01:45:12;;;;;;;;;;;28.90;43.80;;;;;;856971;23;843;-83
2022/08/17 01:45:37;;;;;;;;;;;29.00;43.90;;;;;;856992;23;846;-82
2022/08/17 01:46:00;;;;;;;;;;;29.00;45.00;;;;;;856901;23;821;-82
2022/08/17 01:46:23;;;;;;;;;;;28.90;43.70;;;;;;859954;23;1002;-84
2022/08/17 01:46:43;;;;;;;;;;;29.00;43.90;;;;;;861355;23;845;-84
2022/08/17 01:47:04;;;;;;;;;;;29.00;44.80;;;;;;861433;23;502;-82
2022/08/17 01:47:25;;;;;;;;;;;28.90;44.60;;;;;;861471;23;802;-83
2022/08/17 01:47:45;;;;;;;;;;;29.00;43.70;;;;;;861310;23;805;-83
2022/08/17 01:48:06;;;;;;;;;;;28.90;44.60;;;;;;861473;23;940;-83
2022/08/17 01:48:34;;;;;;;;;;;29.00;44.90;;;;;;861418;23;782;-83
2022/08/17 01:48:55;;;;;;;;;;;29.00;44.90;;;;;;861410;23;769;-84
2022/08/17 01:49:15;;;;;;;;;;;28.90;44.80;;;;;;861441;23;786;-83
2022/08/17 01:49:36;;;;;;;;;;;28.90;44.80;;;;;;861346;23;849;-84
2022/08/17 01:49:56;;;;;;;;;;;28.90;44.90;;;;;;861197;23;810;-86
2022/08/17 01:50:19;;;;;;;;;;;29.00;44.80;;;;;;861442;23;825;-84
2022/08/17 01:50:41;;;;;;;;;;;28.90;43.70;;;;;;861556;23;757;-84
2022/08/17 01:51:02;;;;;;;;;;;28.90;44.70;;;;;;861312;23;777;-84
2022/08/17 01:51:24;;;;;;;;;;;28.90;43.80;;;;;;861419;23;781;-85
2022/08/17 01:51:45;;;;;;;;;;;28.90;44.80;;;;;;861266;23;865;-84
2022/08/17 01:52:07;;;;;;;;;;;28.90;43.80;;;;;;861290;23;786;-85
2022/08/17 01:52:27;;;;;;;;;;;28.90;44.80;;;;;;861362;23;781;-84
2022/08/17 01:52:50;;;;;;;;;;;28.90;44.80;;;;;;861331;23;877;-83
2022/08/17 01:53:20;;;;;;;;;;;28.90;45.00;;;;;;861445;23;906;-84
2022/08/17 01:53:42;;;;;;;;;;;28.90;43.70;;;;;;861352;23;825;-83
2022/08/17 01:54:08;;;;;;;;;;;28.90;43.70;;;;;;861357;23;774;-83
2022/08/17 01:54:28;;;;;;;;;;;28.90;43.90;;;;;;861492;23;825;-85
2022/08/17 01:54:50;;;;;;;;;;;28.90;43.90;;;;;;861377;23;1943;-84
2022/08/17 01:55:11;;;;;;;;;;;28.90;43.80;;;;;;861287;23;829;-84
2022/08/17 01:55:52;;;;;;;;;;;28.90;43.80;;;;;;861362;23;844;-84
2022/08/17 01:56:14;;;;;;;;;;;28.90;43.80;;;;;;861238;23;1354;-84
2022/08/17 01:56:37;;;;;;;;;;;28.90;44.00;;;;;;861238;23;932;-83
2022/08/17 01:56:57;;;;;;;;;;;28.90;44.00;;;;;;861273;23;1338;-85
2022/08/17 01:57:18;;;;;;;;;;;28.90;44.00;;;;;;861416;23;896;-85
2022/08/17 01:57:39;;;;;;;;;;;28.90;43.90;;;;;;860792;23;880;-84
2022/08/17 01:57:59;;;;;;;;;;;28.90;43.90;;;;;;860482;23;891;-83
2022/08/17 01:58:20;;;;;;;;;;;28.90;44.00;;;;;;861306;23;797;-84
2022/08/17 01:58:41;;;;;;;;;;;28.90;44.00;;;;;;861373;23;837;-84
2022/08/17 01:59:02;;;;;;;;;;;28.90;43.90;;;;;;861289;23;909;-84
2022/08/17 01:59:22;;;;;;;;;;;28.90;43.80;;;;;;861265;23;909;-84
2022/08/17 01:59:43;;;;;;;;;;;28.90;43.80;;;;;;861413;23;801;-84
2022/08/17 02:00:05;;;;;;;;;;;28.90;44.80;;;;;;861418;23;765;-83
2022/08/17 02:00:26;;;;;;;;;;;29.00;44.90;;;;;;861191;23;880;-84
2022/08/17 02:00:47;;;;;;;;;;;28.90;44.80;;;;;;861363;23;778;-84
2022/08/17 02:01:08;;;;;;;;;;;28.90;44.80;;;;;;861344;23;841;-84
2022/08/17 02:01:30;;;;;;;;;;;28.90;44.80;;;;;;861327;23;826;-83
2022/08/17 02:01:51;;;;;;;;;;;30.40;45.90;;;;;;861450;23;802;-84
2022/08/17 02:02:12;;;;;;;;;;;28.90;44.80;;;;;;861360;23;821;-83
2022/08/17 02:02:32;;;;;;;;;;;30.70;45.40;;;;;;861318;23;1291;-84
2022/08/17 02:02:53;;;;;;;;;;;28.90;44.90;;;;;;861314;23;924;-82
2022/08/17 02:03:14;;;;;;;;;;;28.90;44.00;;;;;;861263;23;936;-83
2022/08/17 02:03:36;;;;;;;;;;;28.90;44.90;;;;;;861310;23;853;-84
2022/08/17 02:03:57;;;;;;;;;;;28.90;43.90;;;;;;861479;23;826;-83
2022/08/17 02:04:18;;;;;;;;;;;28.90;43.90;;;;;;861321;23;782;-84
2022/08/17 02:04:38;;;;;;;;;;;29.00;44.90;;;;;;861261;23;924;-85
2022/08/17 02:04:59;;;;;;;;;;;28.90;44.00;;;;;;861356;23;770;-84
2022/08/17 02:05:19;;;;;;;;;;;28.90;45.00;;;;;;861381;23;877;-84
2022/08/17 02:05:40;;;;;;;;;;;28.90;44.00;;;;;;861283;23;885;-83
2022/08/17 02:06:01;;;;;;;;;;;29.00;44.90;;;;;;861419;23;766;-84
2022/08/17 02:06:22;;;;;;;;;;;29.00;44.00;;;;;;860931;23;1351;-84
2022/08/17 02:06:42;;;;;;;;;;;28.90;44.90;;;;;;861476;23;828;-84
2022/08/17 02:07:03;;;;;;;;;;;28.90;43.80;;;;;;856756;23;1430;-84
2022/08/17 02:07:24;;;;;;;;;;;29.00;44.90;;;;;;856897;23;797;-82
2022/08/17 02:07:45;;;;;;;;;;;29.00;44.80;;;;;;856917;23;837;-82
2022/08/17 02:08:06;;;;;;;;;;;29.00;43.80;;;;;;856938;23;817;-82
2022/08/17 02:08:27;;;;;;;;;;;28.90;43.80;;;;;;856956;23;797;-82
2022/08/17 02:08:48;;;;;;;;;;;28.90;43.70;;;;;;857771;23;906;-82
2022/08/17 02:09:09;;;;;;;;;;;28.90;43.80;;;;;;861424;23;777;-83
2022/08/17 02:09:29;;;;;;;;;;;29.00;44.90;;;;;;861610;23;798;-83
2022/08/17 02:09:50;;;;;;;;;;;28.90;43.90;;;;;;861440;23;774;-82
2022/08/17 02:10:10;;;;;;;;;;;28.90;43.80;;;;;;861413;23;992;-82
2022/08/17 02:10:32;;;;;;;;;;;28.90;43.70;;;;;;861425;23;805;-83
2022/08/17 02:10:53;;;;;;;;;;;29.00;44.00;;;;;;861304;23;789;-83
2022/08/17 02:11:16;;;;;;;;;;;28.90;44.90;;;;;;861286;23;932;-84
2022/08/17 02:11:37;;;;;;;;;;;29.00;43.90;;;;;;861313;23;794;-84
2022/08/17 02:11:58;;;;;;;;;;;29.00;44.90;;;;;;861407;23;828;-84
2022/08/17 02:12:19;;;;;;;;;;;29.00;43.90;;;;;;861291;23;893;-83
2022/08/17 02:12:39;;;;;;;;;;;29.00;44.90;;;;;;861360;23;947;-83
2022/08/17 02:13:00;;;;;;;;;;;29.00;43.80;;;;;;861367;23;869;-81
2022/08/17 02:13:22;;;;;;;;;;;29.00;43.90;;;;;;861161;23;1477;-85
2022/08/17 02:13:44;;;;;;;;;;;29.00;43.90;;;;;;861221;23;872;-83